KPHF/PHF METAR and TAF weather

Enter ICAO airport designator
Station Type Date Time Source
KPHF METAR 2021/04/13 22:54 UTC NOAA

KPHF 132254Z 09007KT 10SM CLR 13/09 A3008 RMK AO2 SLP183 T01330089


Station Type Date Time Source
KPHF Decoded METAR 2021/04/13 22:54 UTC NOAA

WILLIAMSBURG INTERNATIONAL AIRPORT , VA, United States (KPHF) 37-08N 76-30W 12M
Apr 13, 2021 - 06:54 PM EDT / 2021.04.13 2254 UTC
Wind: from the E (090 degrees) at 8 MPH (7 KT):0
Visibility: 10 mile(s):0
Sky conditions: clear
Temperature: 55.9 F (13.3 C)
Dew Point: 48.0 F (8.9 C)
Relative Humidity: 74%
Pressure (altimeter): 30.08 in. Hg (1018 hPa)
ob: KPHF 132254Z 09007KT 10SM CLR 13/09 A3008 RMK AO2 SLP183 T01330089
cycle: 23

Station Type Date Time Source
KPHF TAF 2021/04/13 20:45 UTC NOAA

TAF
AMD KPHF 131942Z 1320/1418 06010KT P6SM SCT030
FM132100 04007KT P6SM SCT050
FM140000 08004KT P6SM SKC
FM140900 21003KT P6SM SKC
FM141200 18004KT P6SM SCT150

Example: see airport list